createdAt,value
2022-12-16T00:01:15.920Z,11.90
2022-12-16T00:03:48.566Z,11.90
2022-12-16T00:06:16.487Z,11.90
2022-12-16T00:08:44.500Z,11.90
2022-12-16T00:11:13.050Z,11.90
2022-12-16T00:13:41.388Z,11.90
2022-12-16T00:16:11.091Z,11.90
2022-12-16T00:18:38.807Z,11.90
2022-12-16T00:21:08.419Z,11.80
2022-12-16T00:23:36.701Z,11.80
2022-12-16T00:26:05.119Z,11.80
2022-12-16T00:28:32.807Z,11.80
2022-12-16T00:31:00.915Z,11.80
2022-12-16T00:33:29.160Z,11.80
2022-12-16T00:35:57.886Z,11.80
2022-12-16T00:38:27.344Z,11.80
2022-12-16T00:40:55.174Z,11.80
2022-12-16T00:43:23.042Z,11.80
2022-12-16T00:45:51.999Z,11.80
2022-12-16T00:48:23.428Z,11.80
2022-12-16T00:50:51.921Z,11.80
2022-12-16T00:53:19.900Z,11.80
2022-12-16T00:55:49.211Z,11.80
2022-12-16T00:58:17.217Z,11.80
2022-12-16T01:00:45.343Z,11.70
2022-12-16T01:03:19.514Z,11.70
2022-12-16T01:05:49.254Z,11.70
2022-12-16T01:08:17.336Z,11.70
2022-12-16T01:10:52.062Z,11.70
2022-12-16T01:13:20.855Z,11.70
2022-12-16T01:15:48.724Z,11.70
2022-12-16T01:18:16.581Z,11.70
2022-12-16T01:20:44.394Z,11.70
2022-12-16T01:23:12.334Z,11.70
2022-12-16T01:25:40.279Z,11.70
2022-12-16T01:28:09.586Z,11.70
2022-12-16T01:30:37.436Z,11.70
2022-12-16T01:33:05.307Z,11.70
2022-12-16T01:38:21.391Z,11.70
2022-12-16T01:40:49.308Z,11.70
2022-12-16T01:43:24.535Z,11.70
2022-12-16T01:45:52.671Z,11.70
2022-12-16T01:48:23.493Z,11.70
2022-12-16T01:50:51.360Z,11.70
2022-12-16T01:53:21.791Z,11.70
2022-12-16T01:55:50.316Z,11.70
2022-12-16T01:58:21.300Z,11.70
2022-12-16T02:00:49.268Z,11.70
2022-12-16T02:03:17.744Z,11.70
2022-12-16T02:05:45.982Z,11.70
2022-12-16T02:08:14.527Z,11.70
2022-12-16T02:10:55.348Z,11.70
2022-12-16T02:13:27.169Z,11.70
2022-12-16T02:15:59.466Z,11.70
2022-12-16T02:18:32.153Z,11.70
2022-12-16T02:21:10.217Z,11.70
2022-12-16T02:24:06.230Z,11.70
2022-12-16T02:26:46.462Z,11.70
2022-12-16T02:29:33.517Z,11.70
2022-12-16T02:32:05.549Z,11.70
2022-12-16T02:34:36.219Z,11.70
2022-12-16T02:37:12.683Z,11.70
2022-12-16T02:39:42.432Z,11.70
2022-12-16T02:42:14.405Z,11.70
2022-12-16T02:44:46.355Z,11.70
2022-12-16T02:47:15.447Z,11.70
2022-12-16T02:49:49.305Z,11.70
2022-12-16T02:52:18.042Z,11.70
2022-12-16T02:54:45.902Z,11.70
2022-12-16T02:57:21.464Z,11.70
2022-12-16T02:59:51.622Z,11.70
2022-12-16T03:02:25.325Z,11.70
2022-12-16T03:04:54.754Z,11.70
2022-12-16T03:07:23.892Z,11.70
2022-12-16T03:09:51.948Z,11.70
2022-12-16T03:12:19.920Z,11.70
2022-12-16T03:14:49.402Z,11.70
2022-12-16T03:17:17.301Z,11.70
2022-12-16T03:19:48.370Z,11.70
2022-12-16T03:22:19.033Z,11.70
2022-12-16T03:24:46.800Z,11.70
2022-12-16T03:27:18.805Z,11.70
2022-12-16T03:29:51.137Z,11.70
2022-12-16T03:32:21.615Z,11.70
2022-12-16T03:34:53.010Z,11.70
2022-12-16T03:37:21.597Z,11.70
2022-12-16T03:39:50.690Z,11.70
2022-12-16T03:42:19.084Z,11.70
2022-12-16T03:44:47.253Z,11.70
2022-12-16T03:47:21.536Z,11.70
2022-12-16T03:49:52.984Z,11.70
2022-12-16T03:52:21.586Z,11.70
2022-12-16T03:54:49.583Z,11.70
2022-12-16T03:57:17.559Z,11.70
2022-12-16T03:59:45.532Z,11.70
2022-12-16T04:02:13.625Z,11.70
2022-12-16T04:04:42.124Z,11.70
2022-12-16T04:07:24.700Z,11.70
2022-12-16T04:09:53.752Z,11.70
2022-12-16T04:12:39.439Z,11.70
2022-12-16T04:15:25.752Z,11.70
2022-12-16T04:18:10.979Z,11.60
2022-12-16T04:20:58.637Z,11.60
2022-12-16T04:23:45.635Z,11.60
2022-12-16T04:26:13.443Z,11.60
2022-12-16T04:28:41.270Z,11.60
2022-12-16T04:31:09.542Z,11.60
2022-12-16T04:33:54.976Z,11.60
2022-12-16T04:36:40.674Z,11.60
2022-12-16T04:39:27.418Z,11.60
2022-12-16T04:42:13.197Z,11.60
2022-12-16T04:44:58.588Z,11.60
2022-12-16T04:47:44.598Z,11.60
2022-12-16T04:50:29.753Z,11.60
2022-12-16T04:53:15.199Z,11.50
2022-12-16T04:56:04.408Z,11.60
2022-12-16T04:58:50.673Z,11.60
2022-12-16T05:01:36.634Z,11.60
2022-12-16T05:04:21.819Z,11.60
2022-12-16T05:07:08.481Z,11.60
2022-12-16T05:09:53.980Z,11.60
2022-12-16T05:12:41.015Z,11.60
2022-12-16T05:15:26.765Z,11.60
2022-12-16T05:18:12.634Z,11.60
2022-12-16T05:20:58.039Z,11.60
2022-12-16T05:23:43.313Z,11.60
2022-12-16T05:26:28.634Z,11.60
2022-12-16T05:29:16.212Z,11.60
2022-12-16T05:32:01.576Z,11.60
2022-12-16T05:34:47.127Z,11.60
2022-12-16T05:37:32.511Z,11.60
2022-12-16T05:40:20.530Z,11.60
2022-12-16T05:43:06.464Z,11.60
2022-12-16T05:45:53.745Z,11.60
2022-12-16T05:48:53.571Z,11.60
2022-12-16T05:51:39.669Z,11.60
2022-12-16T05:54:25.775Z,11.60
2022-12-16T05:57:11.228Z,11.60
2022-12-16T05:59:57.146Z,11.60
2022-12-16T06:02:44.336Z,11.60
2022-12-16T06:05:30.222Z,11.60
2022-12-16T06:08:15.639Z,11.60
2022-12-16T06:11:01.321Z,11.60
2022-12-16T06:13:46.693Z,11.60
2022-12-16T06:16:32.475Z,11.60
2022-12-16T06:19:19.563Z,11.60
2022-12-16T06:22:05.199Z,11.60
2022-12-16T06:24:50.753Z,11.60
2022-12-16T06:27:36.893Z,11.60
2022-12-16T06:30:22.862Z,11.60
2022-12-16T06:33:23.663Z,11.60
2022-12-16T06:36:15.955Z,11.60
2022-12-16T06:39:01.542Z,11.50
2022-12-16T06:41:47.183Z,11.60
2022-12-16T06:44:32.920Z,11.60
2022-12-16T06:47:18.233Z,11.60
2022-12-16T06:50:03.627Z,11.60
2022-12-16T06:52:51.133Z,11.60
2022-12-16T06:55:36.543Z,11.50
2022-12-16T06:58:22.572Z,11.60
2022-12-16T07:01:14.778Z,11.60
2022-12-16T07:04:00.416Z,11.60
2022-12-16T07:06:45.671Z,11.60
2022-12-16T07:09:35.136Z,11.60
2022-12-16T07:12:20.565Z,11.60
2022-12-16T07:15:06.581Z,11.60
2022-12-16T07:17:52.007Z,11.60
2022-12-16T07:20:38.051Z,11.60
2022-12-16T07:23:25.616Z,11.50
2022-12-16T07:26:12.734Z,11.50
2022-12-16T07:28:58.071Z,11.50
2022-12-16T07:31:44.117Z,11.50
2022-12-16T07:34:29.241Z,11.60
2022-12-16T07:37:15.421Z,11.50
2022-12-16T07:40:00.632Z,11.50
2022-12-16T07:42:48.104Z,11.60
2022-12-16T07:45:33.953Z,11.60
2022-12-16T07:48:19.433Z,11.60
2022-12-16T07:51:05.362Z,11.50
2022-12-16T07:53:50.697Z,11.60
2022-12-16T07:56:36.853Z,11.50
2022-12-16T07:59:23.606Z,11.60
2022-12-16T08:02:09.583Z,11.60
2022-12-16T08:04:55.358Z,11.60
2022-12-16T08:07:41.502Z,11.60
2022-12-16T08:10:27.445Z,11.50
2022-12-16T08:13:23.717Z,11.50
2022-12-16T08:16:12.682Z,11.60
2022-12-16T08:18:58.689Z,11.60
2022-12-16T08:21:44.498Z,11.60
2022-12-16T08:24:30.175Z,11.60
2022-12-16T08:27:15.448Z,11.60
2022-12-16T08:30:00.697Z,11.60
2022-12-16T08:32:47.872Z,11.60
2022-12-16T08:35:33.425Z,11.60
2022-12-16T08:38:19.190Z,11.60
2022-12-16T08:41:04.477Z,11.60
2022-12-16T08:43:51.118Z,11.60
2022-12-16T08:46:36.824Z,11.60
2022-12-16T08:49:24.166Z,11.60
2022-12-16T08:52:09.805Z,11.60
2022-12-16T08:54:55.754Z,11.70
2022-12-16T08:57:42.137Z,11.70
2022-12-16T09:00:28.449Z,11.60
2022-12-16T09:03:14.417Z,11.70
2022-12-16T09:06:01.231Z,11.60
2022-12-16T09:08:46.602Z,11.70
2022-12-16T09:11:31.902Z,11.70
2022-12-16T09:14:17.186Z,11.70
2022-12-16T09:17:02.909Z,11.70
2022-12-16T09:19:48.173Z,11.70
2022-12-16T09:22:37.916Z,11.70
2022-12-16T09:25:24.592Z,11.70
2022-12-16T09:28:09.877Z,11.80
2022-12-16T09:30:55.782Z,11.80
2022-12-16T09:33:41.402Z,11.70
2022-12-16T09:36:27.875Z,11.70
2022-12-16T09:39:15.240Z,11.80
2022-12-16T09:42:02.010Z,11.70
2022-12-16T09:44:54.058Z,11.70
2022-12-16T09:47:43.395Z,11.80
2022-12-16T09:50:36.047Z,11.80
2022-12-16T09:53:22.204Z,11.80
2022-12-16T09:56:09.391Z,11.80
2022-12-16T09:58:58.685Z,11.80
2022-12-16T10:01:44.271Z,11.90
2022-12-16T10:04:30.537Z,11.90
2022-12-16T10:07:17.790Z,11.80
2022-12-16T10:10:12.731Z,11.90
2022-12-16T10:13:02.594Z,11.90
2022-12-16T10:15:51.992Z,11.90
2022-12-16T10:18:48.194Z,11.90
2022-12-16T10:21:36.066Z,11.90
2022-12-16T10:24:25.168Z,12.00
2022-12-16T10:27:12.815Z,12.00
2022-12-16T10:30:01.472Z,12.00
2022-12-16T10:32:49.873Z,11.90
2022-12-16T10:35:40.557Z,11.90
2022-12-16T10:38:30.684Z,12.00
2022-12-16T10:41:16.656Z,12.00
2022-12-16T10:44:03.455Z,12.00
2022-12-16T10:46:53.025Z,12.00
2022-12-16T10:49:39.900Z,11.90
2022-12-16T10:52:26.304Z,12.00
2022-12-16T10:55:17.602Z,12.00
2022-12-16T10:58:13.038Z,12.00
2022-12-16T11:01:01.413Z,12.00
2022-12-16T11:03:49.416Z,12.00
2022-12-16T11:06:37.812Z,12.10
2022-12-16T11:09:41.070Z,12.10
2022-12-16T11:12:42.338Z,12.10
2022-12-16T11:15:42.284Z,12.10
2022-12-16T11:18:29.548Z,12.10
2022-12-16T11:21:33.386Z,12.10
2022-12-16T11:24:29.182Z,12.10
2022-12-16T11:27:16.108Z,12.10
2022-12-16T11:30:09.029Z,12.10
2022-12-16T11:32:54.843Z,12.10
2022-12-16T11:35:43.794Z,12.10
2022-12-16T11:38:35.298Z,12.10
2022-12-16T11:41:20.690Z,12.10
2022-12-16T11:44:06.427Z,12.10
2022-12-16T11:46:51.981Z,12.10
2022-12-16T11:49:43.902Z,12.20
2022-12-16T11:52:36.946Z,12.10
2022-12-16T11:56:03.715Z,12.10
2022-12-16T11:58:42.331Z,12.20
2022-12-16T12:01:30.338Z,12.20
2022-12-16T12:04:16.472Z,12.20
2022-12-16T12:07:29.210Z,12.20
2022-12-16T12:10:19.807Z,12.20
2022-12-16T12:13:07.805Z,12.20
2022-12-16T12:15:56.679Z,12.20
2022-12-16T12:18:52.787Z,12.30
2022-12-16T12:21:41.920Z,12.30
2022-12-16T12:24:33.302Z,12.30
2022-12-16T12:27:25.867Z,12.30
2022-12-16T12:30:18.581Z,12.30
2022-12-16T12:33:07.526Z,12.40
2022-12-16T12:36:02.224Z,12.40
2022-12-16T12:38:49.167Z,12.40
2022-12-16T12:41:36.406Z,12.40
2022-12-16T12:44:24.795Z,12.50
2022-12-16T12:47:13.566Z,12.50
2022-12-16T12:50:02.225Z,12.50
2022-12-16T12:53:06.338Z,12.60
2022-12-16T12:55:53.582Z,12.60
2022-12-16T12:58:39.886Z,12.60
2022-12-16T13:01:25.458Z,12.70
2022-12-16T13:04:15.284Z,12.70
2022-12-16T13:07:00.585Z,12.80
2022-12-16T13:09:48.894Z,12.80
2022-12-16T13:12:43.936Z,12.80
2022-12-16T13:15:30.963Z,12.80
2022-12-16T13:18:40.604Z,12.80
2022-12-16T13:21:59.448Z,12.90
2022-12-16T13:24:56.558Z,12.90
2022-12-16T13:27:41.766Z,12.90
2022-12-16T13:30:39.725Z,13.00
2022-12-16T13:33:26.040Z,13.00
2022-12-16T13:36:12.146Z,13.00
2022-12-16T13:39:04.615Z,13.00
2022-12-16T13:42:16.508Z,13.00
2022-12-16T13:45:27.906Z,13.00
2022-12-16T13:48:34.620Z,13.00
2022-12-16T13:51:20.398Z,13.00
2022-12-16T13:54:15.779Z,13.00
2022-12-16T13:57:03.458Z,13.10
2022-12-16T13:59:51.508Z,13.10
2022-12-16T14:02:45.550Z,13.00
2022-12-16T14:05:36.862Z,13.00
2022-12-16T14:08:24.390Z,13.00
2022-12-16T14:11:16.188Z,13.00
2022-12-16T14:14:02.762Z,12.90
2022-12-16T14:17:00.862Z,12.90
2022-12-16T14:19:48.442Z,12.90
2022-12-16T14:22:45.535Z,12.90
2022-12-16T14:25:32.297Z,12.80
2022-12-16T14:28:18.835Z,12.80
2022-12-16T14:31:04.203Z,12.70
2022-12-16T14:33:51.507Z,12.70
2022-12-16T14:36:41.306Z,12.60
2022-12-16T14:39:29.095Z,12.60
2022-12-16T14:42:14.412Z,12.60
2022-12-16T14:45:00.398Z,12.60
2022-12-16T14:47:45.747Z,12.60
2022-12-16T14:50:39.071Z,12.60
2022-12-16T14:53:35.469Z,12.50
2022-12-16T14:56:48.870Z,12.50
2022-12-16T14:59:34.216Z,12.50
2022-12-16T15:02:24.799Z,12.40
2022-12-16T15:05:11.246Z,12.40
2022-12-16T15:07:58.735Z,12.40
2022-12-16T15:10:45.359Z,12.40
2022-12-16T15:13:33.472Z,12.40
2022-12-16T15:16:19.459Z,12.40
2022-12-16T15:19:05.302Z,12.30
2022-12-16T15:21:52.316Z,12.30
2022-12-16T15:24:42.324Z,12.30
2022-12-16T15:27:41.659Z,12.30
2022-12-16T15:30:54.351Z,12.30
2022-12-16T15:33:41.099Z,12.30
2022-12-16T15:36:39.083Z,12.20
2022-12-16T15:39:29.545Z,12.20
2022-12-16T15:42:17.154Z,12.20
2022-12-16T15:45:05.780Z,12.20
2022-12-16T15:47:52.123Z,12.20
2022-12-16T15:50:38.690Z,12.20
2022-12-16T15:53:35.047Z,12.20
2022-12-16T15:56:20.741Z,12.20
2022-12-16T15:59:11.356Z,12.20
2022-12-16T16:02:05.134Z,12.10
2022-12-16T16:04:50.935Z,12.20
2022-12-16T16:07:37.439Z,12.20
2022-12-16T16:10:30.297Z,12.20
2022-12-16T16:13:15.645Z,12.20
2022-12-16T16:16:03.118Z,12.20
2022-12-16T16:18:48.538Z,12.10
2022-12-16T16:21:34.300Z,12.10
2022-12-16T16:24:19.434Z,12.10
2022-12-16T16:27:05.133Z,12.20
2022-12-16T16:29:50.752Z,12.10
2022-12-16T16:32:38.097Z,12.20
2022-12-16T16:35:23.848Z,12.20
2022-12-16T16:38:13.155Z,12.10
2022-12-16T16:41:02.695Z,12.10
2022-12-16T16:43:48.523Z,12.10
2022-12-16T16:46:46.603Z,12.10
2022-12-16T16:49:38.327Z,12.20
2022-12-16T16:52:24.310Z,12.20
2022-12-16T16:55:10.578Z,12.10
2022-12-16T16:57:56.741Z,12.10
2022-12-16T17:00:42.468Z,12.10
2022-12-16T17:03:30.351Z,12.10
2022-12-16T17:06:17.758Z,12.10
2022-12-16T17:09:03.133Z,12.10
2022-12-16T17:11:48.710Z,12.10
2022-12-16T17:14:34.709Z,12.10
2022-12-16T17:17:20.846Z,12.10
2022-12-16T17:20:06.502Z,12.10
2022-12-16T17:22:53.807Z,12.10
2022-12-16T17:25:40.227Z,12.10
2022-12-16T17:31:59.689Z,12.10
2022-12-16T17:41:12.528Z,12.10
2022-12-16T17:44:28.232Z,12.10
2022-12-16T17:47:20.064Z,12.00
2022-12-16T17:50:23.841Z,12.10
2022-12-16T17:53:17.241Z,12.10
2022-12-16T17:59:26.831Z,12.10
2022-12-16T18:02:49.058Z,12.00
2022-12-16T18:05:56.650Z,12.00
2022-12-16T18:08:47.421Z,12.00
2022-12-16T18:11:38.459Z,12.00
2022-12-16T18:14:35.759Z,12.00
2022-12-16T18:17:24.596Z,12.00
2022-12-16T18:20:21.219Z,12.00
2022-12-16T18:23:12.375Z,12.00
2022-12-16T18:26:03.850Z,12.00
2022-12-16T18:28:49.894Z,12.00
2022-12-16T18:39:04.487Z,12.00
2022-12-16T18:42:05.762Z,12.00
2022-12-16T18:45:00.664Z,12.00
2022-12-16T18:47:53.562Z,12.00
2022-12-16T18:57:58.746Z,12.00
2022-12-16T19:00:44.564Z,12.00
2022-12-16T19:03:31.770Z,12.00
2022-12-16T19:06:20.922Z,12.00
2022-12-16T19:09:17.886Z,12.00
2022-12-16T19:12:10.145Z,12.00
2022-12-16T19:14:54.394Z,12.00
2022-12-16T19:17:45.029Z,12.00
2022-12-16T19:20:33.984Z,12.00
2022-12-16T19:23:19.860Z,12.00
2022-12-16T19:26:05.105Z,12.00
2022-12-16T19:28:53.585Z,11.90
2022-12-16T19:31:43.301Z,12.00
2022-12-16T19:34:40.777Z,11.90
2022-12-16T19:37:26.103Z,11.90
2022-12-16T19:40:11.725Z,12.00
2022-12-16T19:42:57.285Z,11.90
2022-12-16T19:45:43.113Z,11.90
2022-12-16T19:48:30.190Z,12.00
2022-12-16T19:51:16.105Z,12.00
2022-12-16T19:54:02.736Z,11.90
2022-12-16T19:56:49.101Z,11.90
2022-12-16T19:59:36.629Z,11.90
2022-12-16T20:02:26.032Z,11.90
2022-12-16T20:05:13.437Z,11.90
2022-12-16T20:07:59.040Z,11.90
2022-12-16T20:10:44.893Z,12.00
2022-12-16T20:13:36.011Z,11.90
2022-12-16T20:16:22.602Z,11.90
2022-12-16T20:19:08.468Z,11.90
2022-12-16T20:21:58.125Z,11.90
2022-12-16T20:24:45.608Z,11.90
2022-12-16T20:27:31.823Z,11.90
2022-12-16T20:30:17.446Z,11.80
2022-12-16T20:33:05.562Z,11.90
2022-12-16T20:35:51.913Z,11.80
2022-12-16T20:38:38.760Z,11.80
2022-12-16T20:41:25.407Z,11.80
2022-12-16T20:44:11.273Z,11.80
2022-12-16T20:46:57.287Z,11.80
2022-12-16T20:49:42.683Z,11.80
2022-12-16T20:52:27.952Z,11.80
2022-12-16T20:55:15.519Z,11.80
2022-12-16T20:58:04.868Z,11.80
2022-12-16T21:00:50.457Z,11.80
2022-12-16T21:03:36.199Z,11.80
2022-12-16T21:06:22.632Z,11.80
2022-12-16T21:09:08.423Z,11.70
2022-12-16T21:11:56.653Z,11.70
2022-12-16T21:14:51.153Z,11.70
2022-12-16T21:17:37.224Z,11.60
2022-12-16T21:20:24.048Z,11.60
2022-12-16T21:23:17.464Z,11.60
2022-12-16T21:26:03.339Z,11.60
2022-12-16T21:28:51.759Z,11.60
2022-12-16T21:31:37.486Z,11.60
2022-12-16T21:34:23.697Z,11.60
2022-12-16T21:37:09.407Z,11.50
2022-12-16T21:39:54.819Z,11.50
2022-12-16T21:42:43.989Z,11.50
2022-12-16T21:45:49.292Z,11.50
2022-12-16T21:48:34.849Z,11.50
2022-12-16T21:51:20.312Z,11.50
2022-12-16T21:54:09.592Z,11.40
2022-12-16T21:56:56.461Z,11.40
2022-12-16T21:59:42.302Z,11.40
2022-12-16T22:02:29.829Z,11.40
2022-12-16T22:05:15.511Z,11.40
2022-12-16T22:08:01.537Z,11.40
2022-12-16T22:10:47.427Z,11.40
2022-12-16T22:13:32.728Z,11.40
2022-12-16T22:16:20.971Z,11.40
2022-12-16T22:19:08.459Z,11.40
2022-12-16T22:21:58.218Z,11.30
2022-12-16T22:24:40.632Z,11.40
2022-12-16T22:27:26.423Z,11.30
2022-12-16T22:30:12.181Z,11.30
2022-12-16T22:32:57.528Z,11.40
2022-12-16T22:35:44.825Z,11.30
2022-12-16T22:38:30.192Z,11.30
2022-12-16T22:41:16.042Z,11.30
2022-12-16T22:44:01.861Z,11.30
2022-12-16T22:46:47.282Z,11.30
2022-12-16T22:49:32.496Z,11.30
2022-12-16T22:52:30.948Z,11.30
2022-12-16T22:55:16.636Z,11.30
2022-12-16T22:58:02.423Z,11.30
2022-12-16T23:00:47.901Z,11.30
2022-12-16T23:03:34.754Z,11.30
2022-12-16T23:06:20.299Z,11.30
2022-12-16T23:09:07.393Z,11.30
2022-12-16T23:11:56.604Z,11.30
2022-12-16T23:14:42.798Z,11.30
2022-12-16T23:17:28.893Z,11.30
2022-12-16T23:20:14.251Z,11.30
2022-12-16T23:22:59.685Z,11.30
2022-12-16T23:25:47.923Z,11.30
2022-12-16T23:28:33.303Z,11.30
2022-12-16T23:31:19.012Z,11.30
2022-12-16T23:34:04.262Z,11.20
2022-12-16T23:36:49.973Z,11.20
2022-12-16T23:39:35.318Z,11.30
2022-12-16T23:42:22.689Z,11.20
2022-12-16T23:45:08.020Z,11.20
2022-12-16T23:47:53.286Z,11.20
2022-12-16T23:50:41.934Z,11.20
2022-12-16T23:53:28.603Z,11.20
2022-12-16T23:56:14.552Z,11.20
2022-12-16T23:59:01.576Z,11.20
